Saint Genevieve, Louisiana
Current Conditions -  °F | °C
As of 12:55 PM on Friday 31 Oct 2014 (Local Time) from KHEZ Reporting Station
Clear Clear  
Wind Chill: 68°   Ceiling: Unl
Heat Index: 68°   Visibility: 10mi
Dew Point: 46°   Wind: 13mph
Humidity: 46%   Direction: 330°NNW
Pressure: 30.1"   Gusts: 20mph
Location:  31.5712°N, 91.5148°W
Report Text: KHEZ 311755Z AUTO 33011G17KT 310V010 10SM CLR 20/08 A3010 RMK AO1 10200 20070 57007
Loading
Personal Weather Stations






























Interactive Weather Map
Tropical Storm Tracking
New forecast layout! Learn more

10-Day Weather Forecast

Advertisements
Track Severe Weather on mobile